sensor_id;sensor_type;location;lat;lon;timestamp;temperature;humidity
40738;DHT22;54759;48.094;-1.628;2023-07-02T00:02:09;22.40;61.40
40738;DHT22;54759;48.094;-1.628;2023-07-02T00:05:11;22.60;61.60
40738;DHT22;54759;48.094;-1.628;2023-07-02T00:08:13;22.50;61.60
40738;DHT22;54759;48.094;-1.628;2023-07-02T00:11:15;22.40;61.70
40738;DHT22;54759;48.094;-1.628;2023-07-02T00:14:18;22.30;61.40
40738;DHT22;54759;48.094;-1.628;2023-07-02T00:17:19;22.50;62.00
40738;DHT22;54759;48.094;-1.628;2023-07-02T00:20:20;22.40;62.00
40738;DHT22;54759;48.094;-1.628;2023-07-02T00:23:24;22.40;62.40
40738;DHT22;54759;48.094;-1.628;2023-07-02T00:26:26;22.00;62.00
40738;DHT22;54759;48.094;-1.628;2023-07-02T00:29:33;22.30;62.20
40738;DHT22;54759;48.094;-1.628;2023-07-02T00:32:35;22.20;62.30
40738;DHT22;54759;48.094;-1.628;2023-07-02T00:35:37;22.60;63.00
40738;DHT22;54759;48.094;-1.628;2023-07-02T00:38:40;22.30;62.00
40738;DHT22;54759;48.094;-1.628;2023-07-02T00:41:41;22.20;62.40
40738;DHT22;54759;48.094;-1.628;2023-07-02T00:44:43;22.00;62.40
40738;DHT22;54759;48.094;-1.628;2023-07-02T00:47:45;22.10;62.70
40738;DHT22;54759;48.094;-1.628;2023-07-02T00:50:47;22.30;62.70
40738;DHT22;54759;48.094;-1.628;2023-07-02T00:53:51;22.30;62.80
40738;DHT22;54759;48.094;-1.628;2023-07-02T00:56:53;22.20;62.80
40738;DHT22;54759;48.094;-1.628;2023-07-02T00:59:55;22.00;62.50
40738;DHT22;54759;48.094;-1.628;2023-07-02T01:02:57;22.40;62.60
40738;DHT22;54759;48.094;-1.628;2023-07-02T01:06:00;22.30;62.70
40738;DHT22;54759;48.094;-1.628;2023-07-02T01:09:05;22.20;62.30
40738;DHT22;54759;48.094;-1.628;2023-07-02T01:12:08;22.30;62.30
40738;DHT22;54759;48.094;-1.628;2023-07-02T01:15:11;22.20;62.30
40738;DHT22;54759;48.094;-1.628;2023-07-02T01:18:13;22.20;62.50
40738;DHT22;54759;48.094;-1.628;2023-07-02T01:21:21;22.20;62.10
40738;DHT22;54759;48.094;-1.628;2023-07-02T01:24:23;22.50;62.20
40738;DHT22;54759;48.094;-1.628;2023-07-02T01:27:28;22.00;61.90
40738;DHT22;54759;48.094;-1.628;2023-07-02T01:30:29;22.10;62.10
40738;DHT22;54759;48.094;-1.628;2023-07-02T01:33:31;22.50;62.50
40738;DHT22;54759;48.094;-1.628;2023-07-02T01:36:33;22.70;62.60
40738;DHT22;54759;48.094;-1.628;2023-07-02T01:39:34;22.60;62.30
40738;DHT22;54759;48.094;-1.628;2023-07-02T01:42:36;22.50;62.30
40738;DHT22;54759;48.094;-1.628;2023-07-02T01:45:38;22.70;62.10
40738;DHT22;54759;48.094;-1.628;2023-07-02T01:48:39;22.20;62.10
40738;DHT22;54759;48.094;-1.628;2023-07-02T01:51:44;22.10;61.80
40738;DHT22;54759;48.094;-1.628;2023-07-02T01:54:46;22.90;62.70
40738;DHT22;54759;48.094;-1.628;2023-07-02T01:57:47;22.50;62.20
40738;DHT22;54759;48.094;-1.628;2023-07-02T02:00:49;22.70;62.60
40738;DHT22;54759;48.094;-1.628;2023-07-02T02:03:51;22.50;62.10
40738;DHT22;54759;48.094;-1.628;2023-07-02T02:06:56;22.20;62.00
40738;DHT22;54759;48.094;-1.628;2023-07-02T02:09:58;22.70;62.00
40738;DHT22;54759;48.094;-1.628;2023-07-02T02:13:02;22.20;61.80
40738;DHT22;54759;48.094;-1.628;2023-07-02T02:16:03;22.60;62.00
40738;DHT22;54759;48.094;-1.628;2023-07-02T02:19:05;22.80;62.30
40738;DHT22;54759;48.094;-1.628;2023-07-02T02:22:07;22.40;61.80
40738;DHT22;54759;48.094;-1.628;2023-07-02T02:25:09;22.60;61.90
40738;DHT22;54759;48.094;-1.628;2023-07-02T02:28:14;22.50;61.80
40738;DHT22;54759;48.094;-1.628;2023-07-02T02:31:18;22.90;62.20
40738;DHT22;54759;48.094;-1.628;2023-07-02T02:34:20;22.60;59.80
40738;DHT22;54759;48.094;-1.628;2023-07-02T02:37:23;22.10;61.50
40738;DHT22;54759;48.094;-1.628;2023-07-02T02:40:25;22.70;61.80
40738;DHT22;54759;48.094;-1.628;2023-07-02T02:43:27;22.60;61.80
40738;DHT22;54759;48.094;-1.628;2023-07-02T02:46:29;22.60;61.80
40738;DHT22;54759;48.094;-1.628;2023-07-02T02:49:31;22.60;61.80
40738;DHT22;54759;48.094;-1.628;2023-07-02T02:52:33;22.50;61.20
40738;DHT22;54759;48.094;-1.628;2023-07-02T02:55:35;22.40;61.50
40738;DHT22;54759;48.094;-1.628;2023-07-02T02:58:36;22.70;61.70
40738;DHT22;54759;48.094;-1.628;2023-07-02T03:01:38;22.30;61.50
40738;DHT22;54759;48.094;-1.628;2023-07-02T03:04:40;22.60;61.60
40738;DHT22;54759;48.094;-1.628;2023-07-02T03:07:42;22.70;61.70
40738;DHT22;54759;48.094;-1.628;2023-07-02T03:10:44;22.60;61.50
40738;DHT22;54759;48.094;-1.628;2023-07-02T03:13:45;22.60;61.70
40738;DHT22;54759;48.094;-1.628;2023-07-02T03:16:47;22.60;61.60
40738;DHT22;54759;48.094;-1.628;2023-07-02T03:19:49;22.60;61.70
40738;DHT22;54759;48.094;-1.628;2023-07-02T03:22:52;22.60;61.30
40738;DHT22;54759;48.094;-1.628;2023-07-02T03:25:53;22.40;61.50
40738;DHT22;54759;48.094;-1.628;2023-07-02T03:28:55;22.30;61.50
40738;DHT22;54759;48.094;-1.628;2023-07-02T03:31:56;22.90;62.30
40738;DHT22;54759;48.094;-1.628;2023-07-02T03:34:58;22.60;61.60
40738;DHT22;54759;48.094;-1.628;2023-07-02T03:38:05;22.60;61.90
40738;DHT22;54759;48.094;-1.628;2023-07-02T03:41:07;22.50;61.60
40738;DHT22;54759;48.094;-1.628;2023-07-02T03:44:08;22.70;62.00
40738;DHT22;54759;48.094;-1.628;2023-07-02T03:47:10;22.60;62.20
40738;DHT22;54759;48.094;-1.628;2023-07-02T03:50:13;22.70;62.40
40738;DHT22;54759;48.094;-1.628;2023-07-02T03:53:17;22.60;62.20
40738;DHT22;54759;48.094;-1.628;2023-07-02T03:56:21;22.50;62.10
40738;DHT22;54759;48.094;-1.628;2023-07-02T03:59:23;22.60;62.20
40738;DHT22;54759;48.094;-1.628;2023-07-02T04:02:27;22.70;62.50
40738;DHT22;54759;48.094;-1.628;2023-07-02T04:05:29;22.60;62.30
40738;DHT22;54759;48.094;-1.628;2023-07-02T04:08:30;22.60;62.70
40738;DHT22;54759;48.094;-1.628;2023-07-02T04:11:32;22.50;62.90
40738;DHT22;54759;48.094;-1.628;2023-07-02T04:14:33;22.50;62.80
40738;DHT22;54759;48.094;-1.628;2023-07-02T04:17:35;22.10;62.60
40738;DHT22;54759;48.094;-1.628;2023-07-02T04:20:37;22.40;63.10
40738;DHT22;54759;48.094;-1.628;2023-07-02T04:23:40;22.30;63.40
40738;DHT22;54759;48.094;-1.628;2023-07-02T04:26:43;22.30;63.50
40738;DHT22;54759;48.094;-1.628;2023-07-02T04:30:08;22.30;64.10
40738;DHT22;54759;48.094;-1.628;2023-07-02T04:33:11;22.30;64.30
40738;DHT22;54759;48.094;-1.628;2023-07-02T04:36:14;22.30;64.80
40738;DHT22;54759;48.094;-1.628;2023-07-02T04:39:19;22.10;64.80
40738;DHT22;54759;48.094;-1.628;2023-07-02T04:42:21;22.20;65.40
40738;DHT22;54759;48.094;-1.628;2023-07-02T04:45:26;22.20;63.60
40738;DHT22;54759;48.094;-1.628;2023-07-02T04:48:33;21.70;65.20
40738;DHT22;54759;48.094;-1.628;2023-07-02T04:51:35;21.60;65.30
40738;DHT22;54759;48.094;-1.628;2023-07-02T04:54:39;22.20;66.00
40738;DHT22;54759;48.094;-1.628;2023-07-02T04:57:42;22.00;66.00
40738;DHT22;54759;48.094;-1.628;2023-07-02T05:00:45;22.20;66.00
40738;DHT22;54759;48.094;-1.628;2023-07-02T05:03:47;22.10;66.00
40738;DHT22;54759;48.094;-1.628;2023-07-02T05:06:48;21.70;65.90
40738;DHT22;54759;48.094;-1.628;2023-07-02T05:09:50;22.10;66.40
40738;DHT22;54759;48.094;-1.628;2023-07-02T05:12:53;21.80;66.10
40738;DHT22;54759;48.094;-1.628;2023-07-02T05:15:54;22.00;66.40
40738;DHT22;54759;48.094;-1.628;2023-07-02T05:18:56;22.20;66.70
40738;DHT22;54759;48.094;-1.628;2023-07-02T05:21:57;22.00;67.00
40738;DHT22;54759;48.094;-1.628;2023-07-02T05:24:59;22.00;66.70
40738;DHT22;54759;48.094;-1.628;2023-07-02T05:28:04;22.00;66.30
40738;DHT22;54759;48.094;-1.628;2023-07-02T05:31:05;22.00;66.70
40738;DHT22;54759;48.094;-1.628;2023-07-02T05:34:06;22.00;66.50
40738;DHT22;54759;48.094;-1.628;2023-07-02T05:37:11;22.50;67.50
40738;DHT22;54759;48.094;-1.628;2023-07-02T05:40:13;22.00;66.70
40738;DHT22;54759;48.094;-1.628;2023-07-02T05:43:17;21.90;67.00
40738;DHT22;54759;48.094;-1.628;2023-07-02T05:46:18;21.90;67.20
40738;DHT22;54759;48.094;-1.628;2023-07-02T05:49:19;22.40;67.70
40738;DHT22;54759;48.094;-1.628;2023-07-02T05:52:24;21.70;67.00
40738;DHT22;54759;48.094;-1.628;2023-07-02T05:55:26;21.90;67.60
40738;DHT22;54759;48.094;-1.628;2023-07-02T05:58:28;22.00;67.60
40738;DHT22;54759;48.094;-1.628;2023-07-02T06:01:49;21.90;68.00
40738;DHT22;54759;48.094;-1.628;2023-07-02T06:04:50;21.90;68.00
40738;DHT22;54759;48.094;-1.628;2023-07-02T06:07:52;21.90;68.10
40738;DHT22;54759;48.094;-1.628;2023-07-02T06:10:54;21.90;67.70
40738;DHT22;54759;48.094;-1.628;2023-07-02T06:13:55;21.90;68.00
40738;DHT22;54759;48.094;-1.628;2023-07-02T06:16:57;21.90;66.20
40738;DHT22;54759;48.094;-1.628;2023-07-02T06:20:01;21.90;67.60
40738;DHT22;54759;48.094;-1.628;2023-07-02T06:23:05;21.60;67.20
40738;DHT22;54759;48.094;-1.628;2023-07-02T06:26:10;21.60;67.30
40738;DHT22;54759;48.094;-1.628;2023-07-02T06:29:12;21.80;65.10
40738;DHT22;54759;48.094;-1.628;2023-07-02T06:32:13;21.90;67.80
40738;DHT22;54759;48.094;-1.628;2023-07-02T06:35:16;21.90;68.10
40738;DHT22;54759;48.094;-1.628;2023-07-02T06:38:20;21.70;67.70
40738;DHT22;54759;48.094;-1.628;2023-07-02T06:41:26;21.80;68.00
40738;DHT22;54759;48.094;-1.628;2023-07-02T06:44:30;21.60;67.20
40738;DHT22;54759;48.094;-1.628;2023-07-02T06:47:31;21.90;67.10
40738;DHT22;54759;48.094;-1.628;2023-07-02T06:50:33;21.50;66.80
40738;DHT22;54759;48.094;-1.628;2023-07-02T06:53:36;21.80;67.10
40738;DHT22;54759;48.094;-1.628;2023-07-02T06:56:39;21.80;67.00
40738;DHT22;54759;48.094;-1.628;2023-07-02T06:59:44;21.30;66.30
40738;DHT22;54759;48.094;-1.628;2023-07-02T07:02:45;21.70;65.10
40738;DHT22;54759;48.094;-1.628;2023-07-02T07:05:47;21.70;65.10
40738;DHT22;54759;48.094;-1.628;2023-07-02T07:08:48;21.60;64.80
40738;DHT22;54759;48.094;-1.628;2023-07-02T07:11:50;21.50;64.40
40738;DHT22;54759;48.094;-1.628;2023-07-02T07:14:51;21.60;64.70
40738;DHT22;54759;48.094;-1.628;2023-07-02T07:17:53;21.20;64.20
40738;DHT22;54759;48.094;-1.628;2023-07-02T07:20:55;21.10;64.30
40738;DHT22;54759;48.094;-1.628;2023-07-02T07:23:57;21.10;63.90
40738;DHT22;54759;48.094;-1.628;2023-07-02T07:26:59;21.60;64.50
40738;DHT22;54759;48.094;-1.628;2023-07-02T07:30:01;21.50;64.20
40738;DHT22;54759;48.094;-1.628;2023-07-02T07:33:02;21.60;64.10
40738;DHT22;54759;48.094;-1.628;2023-07-02T07:36:04;21.30;64.00
40738;DHT22;54759;48.094;-1.628;2023-07-02T07:39:05;21.30;63.60
40738;DHT22;54759;48.094;-1.628;2023-07-02T07:42:07;21.40;63.80
40738;DHT22;54759;48.094;-1.628;2023-07-02T07:45:10;21.30;63.40
40738;DHT22;54759;48.094;-1.628;2023-07-02T07:48:11;20.30;62.60
40738;DHT22;54759;48.094;-1.628;2023-07-02T07:51:13;21.00;63.00
40738;DHT22;54759;48.094;-1.628;2023-07-02T07:54:17;21.40;63.30
40738;DHT22;54759;48.094;-1.628;2023-07-02T07:57:23;20.40;62.40
40738;DHT22;54759;48.094;-1.628;2023-07-02T08:00:25;21.10;62.60
40738;DHT22;54759;48.094;-1.628;2023-07-02T08:03:29;21.50;62.70
40738;DHT22;54759;48.094;-1.628;2023-07-02T08:06:31;21.50;62.40
40738;DHT22;54759;48.094;-1.628;2023-07-02T08:09:32;21.60;62.90
40738;DHT22;54759;48.094;-1.628;2023-07-02T08:12:34;21.50;62.10
40738;DHT22;54759;48.094;-1.628;2023-07-02T08:15:39;21.90;62.60
40738;DHT22;54759;48.094;-1.628;2023-07-02T08:18:40;21.40;61.90
40738;DHT22;54759;48.094;-1.628;2023-07-02T08:21:42;21.90;62.40
40738;DHT22;54759;48.094;-1.628;2023-07-02T08:24:43;21.20;61.30
40738;DHT22;54759;48.094;-1.628;2023-07-02T08:27:45;21.90;62.40
40738;DHT22;54759;48.094;-1.628;2023-07-02T08:30:48;21.50;61.60
40738;DHT22;54759;48.094;-1.628;2023-07-02T08:33:50;21.50;61.20
40738;DHT22;54759;48.094;-1.628;2023-07-02T08:36:52;21.50;61.00
40738;DHT22;54759;48.094;-1.628;2023-07-02T08:39:53;21.60;60.40
40738;DHT22;54759;48.094;-1.628;2023-07-02T08:42:58;21.50;60.60
40738;DHT22;54759;48.094;-1.628;2023-07-02T08:46:02;21.50;60.40
40738;DHT22;54759;48.094;-1.628;2023-07-02T08:49:04;21.30;60.10
40738;DHT22;54759;48.094;-1.628;2023-07-02T08:52:06;21.60;60.10
40738;DHT22;54759;48.094;-1.628;2023-07-02T08:55:08;21.10;59.70
40738;DHT22;54759;48.094;-1.628;2023-07-02T08:58:10;21.60;59.10
40738;DHT22;54759;48.094;-1.628;2023-07-02T09:01:14;21.60;58.60
40738;DHT22;54759;48.094;-1.628;2023-07-02T09:04:17;21.60;58.30
40738;DHT22;54759;48.094;-1.628;2023-07-02T09:07:19;21.50;58.10
40738;DHT22;54759;48.094;-1.628;2023-07-02T09:10:27;21.70;58.10
40738;DHT22;54759;48.094;-1.628;2023-07-02T09:13:29;21.70;55.70
40738;DHT22;54759;48.094;-1.628;2023-07-02T09:16:32;21.60;57.90
40738;DHT22;54759;48.094;-1.628;2023-07-02T09:19:49;21.70;57.40
40738;DHT22;54759;48.094;-1.628;2023-07-02T09:22:54;21.60;57.20
40738;DHT22;54759;48.094;-1.628;2023-07-02T09:25:56;21.60;56.70
40738;DHT22;54759;48.094;-1.628;2023-07-02T09:29:01;21.30;56.70
40738;DHT22;54759;48.094;-1.628;2023-07-02T09:32:04;21.40;56.10
40738;DHT22;54759;48.094;-1.628;2023-07-02T09:35:12;21.60;56.20
40738;DHT22;54759;48.094;-1.628;2023-07-02T09:38:13;21.90;56.50
40738;DHT22;54759;48.094;-1.628;2023-07-02T09:41:17;22.00;56.40
40738;DHT22;54759;48.094;-1.628;2023-07-02T09:44:22;21.80;55.90
40738;DHT22;54759;48.094;-1.628;2023-07-02T09:47:25;21.80;55.60
40738;DHT22;54759;48.094;-1.628;2023-07-02T09:50:27;21.80;55.40
40738;DHT22;54759;48.094;-1.628;2023-07-02T09:53:30;21.70;55.60
40738;DHT22;54759;48.094;-1.628;2023-07-02T09:56:32;21.70;56.50
40738;DHT22;54759;48.094;-1.628;2023-07-02T09:59:35;21.90;56.60
40738;DHT22;54759;48.094;-1.628;2023-07-02T10:02:37;22.00;56.50
40738;DHT22;54759;48.094;-1.628;2023-07-02T10:05:40;21.90;56.50
40738;DHT22;54759;48.094;-1.628;2023-07-02T10:08:52;22.00;56.40
40738;DHT22;54759;48.094;-1.628;2023-07-02T10:11:54;22.00;56.00
40738;DHT22;54759;48.094;-1.628;2023-07-02T10:14:56;21.90;55.90
40738;DHT22;54759;48.094;-1.628;2023-07-02T10:17:59;22.10;56.30
40738;DHT22;54759;48.094;-1.628;2023-07-02T10:21:14;21.60;55.40
40738;DHT22;54759;48.094;-1.628;2023-07-02T10:24:17;22.20;55.50
40738;DHT22;54759;48.094;-1.628;2023-07-02T10:27:19;22.00;54.90
40738;DHT22;54759;48.094;-1.628;2023-07-02T10:30:30;22.10;55.10
40738;DHT22;54759;48.094;-1.628;2023-07-02T10:33:33;22.20;54.50
40738;DHT22;54759;48.094;-1.628;2023-07-02T10:36:34;22.10;54.70
40738;DHT22;54759;48.094;-1.628;2023-07-02T10:39:39;22.10;54.40
40738;DHT22;54759;48.094;-1.628;2023-07-02T10:42:48;22.10;54.50
40738;DHT22;54759;48.094;-1.628;2023-07-02T10:45:51;22.10;54.40
40738;DHT22;54759;48.094;-1.628;2023-07-02T10:48:53;22.20;54.50
40738;DHT22;54759;48.094;-1.628;2023-07-02T10:51:58;22.20;54.40
40738;DHT22;54759;48.094;-1.628;2023-07-02T10:55:00;21.90;54.30
40738;DHT22;54759;48.094;-1.628;2023-07-02T10:58:03;22.20;54.50
40738;DHT22;54759;48.094;-1.628;2023-07-02T11:01:06;22.30;54.50
40738;DHT22;54759;48.094;-1.628;2023-07-02T11:04:12;22.30;53.80
40738;DHT22;54759;48.094;-1.628;2023-07-02T11:07:14;22.20;54.00
40738;DHT22;54759;48.094;-1.628;2023-07-02T11:10:23;22.20;53.60
40738;DHT22;54759;48.094;-1.628;2023-07-02T11:13:26;22.30;53.60
40738;DHT22;54759;48.094;-1.628;2023-07-02T11:16:28;22.20;53.20
40738;DHT22;54759;48.094;-1.628;2023-07-02T11:19:30;22.70;53.80
40738;DHT22;54759;48.094;-1.628;2023-07-02T11:22:32;22.20;53.10
40738;DHT22;54759;48.094;-1.628;2023-07-02T11:25:35;22.40;53.30
40738;DHT22;54759;48.094;-1.628;2023-07-02T11:28:46;22.30;53.10
40738;DHT22;54759;48.094;-1.628;2023-07-02T11:31:49;22.40;53.30
40738;DHT22;54759;48.094;-1.628;2023-07-02T11:34:53;22.40;53.20
40738;DHT22;54759;48.094;-1.628;2023-07-02T11:37:55;22.30;53.00
40738;DHT22;54759;48.094;-1.628;2023-07-02T11:40:58;22.50;53.00
40738;DHT22;54759;48.094;-1.628;2023-07-02T11:43:59;23.60;53.80
40738;DHT22;54759;48.094;-1.628;2023-07-02T11:47:03;22.40;53.00
40738;DHT22;54759;48.094;-1.628;2023-07-02T11:50:07;22.60;52.90
40738;DHT22;54759;48.094;-1.628;2023-07-02T11:53:25;22.40;52.80
40738;DHT22;54759;48.094;-1.628;2023-07-02T11:56:27;22.50;53.10
40738;DHT22;54759;48.094;-1.628;2023-07-02T11:59:28;22.60;53.20
40738;DHT22;54759;48.094;-1.628;2023-07-02T12:02:30;22.60;53.10
40738;DHT22;54759;48.094;-1.628;2023-07-02T12:05:32;22.60;52.70
40738;DHT22;54759;48.094;-1.628;2023-07-02T12:08:34;22.60;53.00
40738;DHT22;54759;48.094;-1.628;2023-07-02T12:11:35;22.70;52.70
40738;DHT22;54759;48.094;-1.628;2023-07-02T12:14:38;22.90;53.30
40738;DHT22;54759;48.094;-1.628;2023-07-02T12:17:43;22.70;52.80
40738;DHT22;54759;48.094;-1.628;2023-07-02T12:20:46;22.40;52.60
40738;DHT22;54759;48.094;-1.628;2023-07-02T12:23:48;22.80;52.70
40738;DHT22;54759;48.094;-1.628;2023-07-02T12:26:49;22.40;52.70
40738;DHT22;54759;48.094;-1.628;2023-07-02T12:29:51;22.90;53.20
40738;DHT22;54759;48.094;-1.628;2023-07-02T12:32:53;22.70;53.10
40738;DHT22;54759;48.094;-1.628;2023-07-02T12:35:55;22.90;52.80
40738;DHT22;54759;48.094;-1.628;2023-07-02T12:38:56;22.90;53.00
40738;DHT22;54759;48.094;-1.628;2023-07-02T12:41:58;22.90;52.80
40738;DHT22;54759;48.094;-1.628;2023-07-02T12:44:59;22.30;52.70
40738;DHT22;54759;48.094;-1.628;2023-07-02T12:48:02;22.80;53.10
40738;DHT22;54759;48.094;-1.628;2023-07-02T12:51:03;22.80;53.20
40738;DHT22;54759;48.094;-1.628;2023-07-02T12:54:05;22.90;53.10
40738;DHT22;54759;48.094;-1.628;2023-07-02T12:57:07;23.10;53.70
40738;DHT22;54759;48.094;-1.628;2023-07-02T13:00:10;22.50;53.10
40738;DHT22;54759;48.094;-1.628;2023-07-02T13:03:13;22.90;53.20
40738;DHT22;54759;48.094;-1.628;2023-07-02T13:06:19;22.90;53.30
40738;DHT22;54759;48.094;-1.628;2023-07-02T13:09:20;22.90;53.40
40738;DHT22;54759;48.094;-1.628;2023-07-02T13:12:22;22.90;53.20
40738;DHT22;54759;48.094;-1.628;2023-07-02T13:15:24;22.80;53.40
40738;DHT22;54759;48.094;-1.628;2023-07-02T13:18:29;23.00;53.40
40738;DHT22;54759;48.094;-1.628;2023-07-02T13:21:32;23.00;53.40
40738;DHT22;54759;48.094;-1.628;2023-07-02T13:24:34;23.00;53.30
40738;DHT22;54759;48.094;-1.628;2023-07-02T13:27:38;23.00;53.50
40738;DHT22;54759;48.094;-1.628;2023-07-02T13:30:43;23.10;53.60
40738;DHT22;54759;48.094;-1.628;2023-07-02T13:33:45;23.00;53.60
40738;DHT22;54759;48.094;-1.628;2023-07-02T13:36:48;23.10;53.40
40738;DHT22;54759;48.094;-1.628;2023-07-02T13:39:50;23.30;53.70
40738;DHT22;54759;48.094;-1.628;2023-07-02T13:42:52;23.00;53.60
40738;DHT22;54759;48.094;-1.628;2023-07-02T13:45:55;23.10;53.80
40738;DHT22;54759;48.094;-1.628;2023-07-02T13:48:57;23.10;53.60
40738;DHT22;54759;48.094;-1.628;2023-07-02T13:51:59;23.10;53.50
40738;DHT22;54759;48.094;-1.628;2023-07-02T13:55:01;23.00;53.40
40738;DHT22;54759;48.094;-1.628;2023-07-02T13:58:03;23.10;53.80
40738;DHT22;54759;48.094;-1.628;2023-07-02T14:01:05;23.20;53.50
40738;DHT22;54759;48.094;-1.628;2023-07-02T14:04:06;23.20;53.50
40738;DHT22;54759;48.094;-1.628;2023-07-02T14:07:11;22.90;53.30
40738;DHT22;54759;48.094;-1.628;2023-07-02T14:10:14;23.20;53.40
40738;DHT22;54759;48.094;-1.628;2023-07-02T14:13:15;23.20;53.40
40738;DHT22;54759;48.094;-1.628;2023-07-02T14:16:17;23.30;53.40
40738;DHT22;54759;48.094;-1.628;2023-07-02T14:19:19;23.30;53.60
40738;DHT22;54759;48.094;-1.628;2023-07-02T14:22:20;23.30;53.70
40738;DHT22;54759;48.094;-1.628;2023-07-02T14:25:22;23.30;53.40
40738;DHT22;54759;48.094;-1.628;2023-07-02T14:28:42;23.20;53.60
40738;DHT22;54759;48.094;-1.628;2023-07-02T14:31:44;23.20;53.40
40738;DHT22;54759;48.094;-1.628;2023-07-02T14:34:46;23.30;53.40
40738;DHT22;54759;48.094;-1.628;2023-07-02T14:37:48;23.30;53.20
40738;DHT22;54759;48.094;-1.628;2023-07-02T14:40:50;23.20;53.40
40738;DHT22;54759;48.094;-1.628;2023-07-02T14:43:52;23.30;53.30
40738;DHT22;54759;48.094;-1.628;2023-07-02T14:46:54;23.30;53.50
40738;DHT22;54759;48.094;-1.628;2023-07-02T14:49:55;23.40;53.70
40738;DHT22;54759;48.094;-1.628;2023-07-02T14:52:58;23.00;53.40
40738;DHT22;54759;48.094;-1.628;2023-07-02T14:56:01;23.30;53.50
40738;DHT22;54759;48.094;-1.628;2023-07-02T14:59:06;23.30;53.40
40738;DHT22;54759;48.094;-1.628;2023-07-02T15:02:10;23.40;53.40
40738;DHT22;54759;48.094;-1.628;2023-07-02T15:05:13;23.50;53.70
40738;DHT22;54759;48.094;-1.628;2023-07-02T15:08:17;23.30;52.10
40738;DHT22;54759;48.094;-1.628;2023-07-02T15:11:18;23.40;53.60
40738;DHT22;54759;48.094;-1.628;2023-07-02T15:14:20;23.40;53.60
40738;DHT22;54759;48.094;-1.628;2023-07-02T15:17:22;23.50;54.30
40738;DHT22;54759;48.094;-1.628;2023-07-02T15:20:26;23.40;54.10
40738;DHT22;54759;48.094;-1.628;2023-07-02T15:23:30;23.40;54.10
40738;DHT22;54759;48.094;-1.628;2023-07-02T15:26:32;23.40;53.80
40738;DHT22;54759;48.094;-1.628;2023-07-02T15:29:33;23.50;54.00
40738;DHT22;54759;48.094;-1.628;2023-07-02T15:32:38;22.20;53.30
40738;DHT22;54759;48.094;-1.628;2023-07-02T15:35:39;23.30;53.80
40738;DHT22;54759;48.094;-1.628;2023-07-02T15:38:41;23.60;54.10
40738;DHT22;54759;48.094;-1.628;2023-07-02T15:41:43;23.50;54.00
40738;DHT22;54759;48.094;-1.628;2023-07-02T15:44:46;23.00;53.40
40738;DHT22;54759;48.094;-1.628;2023-07-02T15:47:51;23.60;53.90
40738;DHT22;54759;48.094;-1.628;2023-07-02T15:50:52;23.50;53.60
40738;DHT22;54759;48.094;-1.628;2023-07-02T15:53:56;23.10;53.50
40738;DHT22;54759;48.094;-1.628;2023-07-02T15:57:00;23.60;53.80
40738;DHT22;54759;48.094;-1.628;2023-07-02T16:00:02;23.50;53.80
40738;DHT22;54759;48.094;-1.628;2023-07-02T16:03:14;23.60;53.70
40738;DHT22;54759;48.094;-1.628;2023-07-02T16:06:19;23.60;53.70
40738;DHT22;54759;48.094;-1.628;2023-07-02T16:09:21;23.40;53.60
40738;DHT22;54759;48.094;-1.628;2023-07-02T16:12:22;23.60;53.70
40738;DHT22;54759;48.094;-1.628;2023-07-02T16:15:27;23.60;53.80
40738;DHT22;54759;48.094;-1.628;2023-07-02T16:18:32;23.70;54.00
40738;DHT22;54759;48.094;-1.628;2023-07-02T16:21:34;23.30;53.50
40738;DHT22;54759;48.094;-1.628;2023-07-02T16:24:35;23.70;54.40
40738;DHT22;54759;48.094;-1.628;2023-07-02T16:27:40;23.70;53.90
40738;DHT22;54759;48.094;-1.628;2023-07-02T16:30:41;23.60;53.80
40738;DHT22;54759;48.094;-1.628;2023-07-02T16:33:46;23.70;53.90
40738;DHT22;54759;48.094;-1.628;2023-07-02T16:36:48;23.80;53.80
40738;DHT22;54759;48.094;-1.628;2023-07-02T16:39:50;23.70;53.80
40738;DHT22;54759;48.094;-1.628;2023-07-02T16:42:51;23.80;53.90
40738;DHT22;54759;48.094;-1.628;2023-07-02T16:45:54;23.70;52.10
40738;DHT22;54759;48.094;-1.628;2023-07-02T16:48:59;23.70;53.60
40738;DHT22;54759;48.094;-1.628;2023-07-02T16:52:04;23.70;53.70
40738;DHT22;54759;48.094;-1.628;2023-07-02T16:55:07;23.50;53.60
40738;DHT22;54759;48.094;-1.628;2023-07-02T16:58:09;24.00;51.50
40738;DHT22;54759;48.094;-1.628;2023-07-02T17:01:11;23.90;53.90
40738;DHT22;54759;48.094;-1.628;2023-07-02T17:04:14;23.70;53.50
40738;DHT22;54759;48.094;-1.628;2023-07-02T17:07:16;23.90;53.80
40738;DHT22;54759;48.094;-1.628;2023-07-02T17:10:18;23.80;53.80
40738;DHT22;54759;48.094;-1.628;2023-07-02T17:13:20;23.90;53.80
40738;DHT22;54759;48.094;-1.628;2023-07-02T17:16:23;23.90;53.90
40738;DHT22;54759;48.094;-1.628;2023-07-02T17:19:27;23.60;53.70
40738;DHT22;54759;48.094;-1.628;2023-07-02T17:22:30;23.90;53.90
40738;DHT22;54759;48.094;-1.628;2023-07-02T17:25:37;23.90;53.80
40738;DHT22;54759;48.094;-1.628;2023-07-02T17:28:39;24.00;54.30
40738;DHT22;54759;48.094;-1.628;2023-07-02T17:31:43;24.00;54.10
40738;DHT22;54759;48.094;-1.628;2023-07-02T17:34:48;23.90;53.90
40738;DHT22;54759;48.094;-1.628;2023-07-02T17:37:50;24.00;54.20
40738;DHT22;54759;48.094;-1.628;2023-07-02T17:40:51;23.90;53.80
40738;DHT22;54759;48.094;-1.628;2023-07-02T17:43:54;23.50;53.90
40738;DHT22;54759;48.094;-1.628;2023-07-02T17:46:59;23.70;53.80
40738;DHT22;54759;48.094;-1.628;2023-07-02T17:50:04;23.90;53.90
40738;DHT22;54759;48.094;-1.628;2023-07-02T17:53:08;24.20;54.20
40738;DHT22;54759;48.094;-1.628;2023-07-02T17:56:10;24.10;51.80
40738;DHT22;54759;48.094;-1.628;2023-07-02T17:59:11;24.10;54.30
40738;DHT22;54759;48.094;-1.628;2023-07-02T18:02:14;24.10;54.40
40738;DHT22;54759;48.094;-1.628;2023-07-02T18:05:20;24.10;54.20
40738;DHT22;54759;48.094;-1.628;2023-07-02T18:08:22;24.10;54.40
40738;DHT22;54759;48.094;-1.628;2023-07-02T18:11:24;24.10;54.50
40738;DHT22;54759;48.094;-1.628;2023-07-02T18:14:26;23.70;54.40
40738;DHT22;54759;48.094;-1.628;2023-07-02T18:17:28;24.20;54.50
40738;DHT22;54759;48.094;-1.628;2023-07-02T18:20:30;24.20;54.80
40738;DHT22;54759;48.094;-1.628;2023-07-02T18:23:37;24.20;54.90
40738;DHT22;54759;48.094;-1.628;2023-07-02T18:26:39;23.80;54.80
40738;DHT22;54759;48.094;-1.628;2023-07-02T18:29:40;24.30;55.10
40738;DHT22;54759;48.094;-1.628;2023-07-02T18:32:42;24.10;55.20
40738;DHT22;54759;48.094;-1.628;2023-07-02T18:35:45;24.30;55.10
40738;DHT22;54759;48.094;-1.628;2023-07-02T18:38:50;24.30;55.50
40738;DHT22;54759;48.094;-1.628;2023-07-02T18:41:51;24.20;55.50
40738;DHT22;54759;48.094;-1.628;2023-07-02T18:44:53;24.20;55.70
40738;DHT22;54759;48.094;-1.628;2023-07-02T18:47:55;24.10;55.70
40738;DHT22;54759;48.094;-1.628;2023-07-02T18:50:58;24.30;56.00
40738;DHT22;54759;48.094;-1.628;2023-07-02T18:54:00;24.10;55.90
40738;DHT22;54759;48.094;-1.628;2023-07-02T18:57:02;24.20;56.20